M I D A S
Marine Information and Data Acquisition System
Tripno 1818 of the Zeeleeuw from 2009-09-29 06:51:08 to 2009-09-29 16:20:53
Back to CruiseResearch ActivitiesStationsMapUnderway DataData graphs

EquipmentUnitsComment
TimeDGPSUTC
LatitudeDGPSDM.mWGS84
LongitudeDGPSDM.mWGS84
TemperatureSBE03/SBE38deg celciusITS90
ConductivitySBE21S/mITS90
SalinitySBE21 Practical Salinity Units
ChlorophylAChelsea fluorimeterg/lCalibrated in Aceton
Missing or incorrect values are displayed as -999
Sea surface data collected by the RV Zeeleeuw from 2009-09-29 07:01:30 to 2009-09-29 16:25:40
Time Latitude Longitude Temperature Conductivity Salinity ChlorophylA
2009-09-29 07:02:38 51°13.675 2°55.913 22.7641 0.032843 0.16465 12.998701
2009-09-29 07:03:38 51°13.692 2°55.838 22.7685 0.032843 0.164657 12.963877
2009-09-29 07:04:38 51°13.699 2°55.777 22.8215 0.033151 0.166224 12.929053
2009-09-29 07:05:36 51°13.705 2°55.789 22.7131 0.03202 0.160515 12.894229
2009-09-29 07:06:38 51°13.706 2°55.785 22.8209 0.033049 0.165732 12.894229
2009-09-29 07:07:36 51°13.714 2°55.79 22.8391 0.03346 0.16781 12.859405
2009-09-29 07:08:35 51°13.748 2°55.736 22.7265 0.032122 0.161052 12.859405
2009-09-29 07:09:35 51°13.806 2°55.658 22.7595 0.031711 0.158993 12.824581
2009-09-29 07:10:35 51°13.887 2°55.593 22.7713 0.031505 0.157971 12.824581
2009-09-29 07:11:35 51°13.972 2°55.53 19.3553 4.651827 31.466667 13.172822
2009-09-29 07:12:35 51°14.059 2°55.468 18.7806 3.938315 28.377591 6.277659
2009-09-29 07:13:35 51°14.142 2°55.4 18.3201 3.905763 28.526801 5.720474
2009-09-29 07:14:34 51°14.23 2°55.293 17.8989 3.929827 29.141888 5.999067
2009-09-29 07:15:34 51°14.316 2°55.146 17.7062 3.976393 29.766987 6.591076
2009-09-29 07:16:34 51°14.423 2°55.008 17.4274 4.020576 30.299182 7.357205
2009-09-29 07:17:34 51°14.558 2°54.891 17.3775 4.092356 31.050152 8.227806
2009-09-29 07:18:34 51°14.705 2°54.759 17.3213 4.133125 31.447242 8.993935
2009-09-29 07:19:34 51°14.864 2°54.624 17.311 4.165286 31.753521 9.72524
2009-09-29 07:20:35 51°15.023 2°54.481 17.3003 4.172134 31.821825 10.386897
2009-09-29 07:21:34 51°15.178 2°54.343 17.3058 4.188423 31.969343 10.978906
2009-09-29 07:22:34 51°15.335 2°54.202 17.3206 4.205127 32.111054 11.570915
2009-09-29 07:23:34 51°15.49 2°54.064 17.3176 4.208655 32.136681 12.162924
2009-09-29 07:24:35 51°15.648 2°53.922 17.3247 4.207306 32.120107 12.754933
2009-09-29 07:25:34 51°15.801 2°53.785 17.3257 4.221729 32.243689 13.346942
2009-09-29 07:26:35 51°15.958 2°53.641 17.3238 4.220691 32.236116 13.834479
2009-09-29 07:27:34 51°16.109 2°53.504 17.3206 4.225153 32.276716 14.322015
2009-09-29 07:28:34 51°16.263 2°53.363 17.3062 4.228992 32.316488 14.670256
2009-09-29 07:29:35 51°16.424 2°53.225 17.2903 4.231794 32.350626 15.018497
2009-09-29 07:30:34 51°16.583 2°53.112 17.278 4.233766 32.379621 15.297089
2009-09-29 07:31:34 51°16.743 2°52.997 17.2702 4.236152 32.410904 15.540857
2009-09-29 07:32:34 51°16.899 2°52.866 17.271 4.236983 32.424414 15.749802
2009-09-29 07:33:35 51°17.053 2°52.719 17.2706 4.19911 32.102274 15.923922
2009-09-29 07:34:34 51°17.2 2°52.582 17.2822 4.243935 32.482548 16.063218
2009-09-29 07:35:35 51°17.376 2°52.526 17.2931 4.249123 32.520464 16.16769
2009-09-29 07:36:34 51°17.55 2°52.533 17.3007 4.252132 32.535241 16.237338
2009-09-29 07:37:35 51°17.734 2°52.546 17.3108 4.256905 32.568949 16.306987
2009-09-29 07:38:35 51°17.915 2°52.555 17.3258 4.26199 32.6066 16.376635
2009-09-29 07:39:34 51°18.09 2°52.561 17.33 4.26531 32.627882 16.446283
2009-09-29 07:40:35 51°18.27 2°52.567 17.3281 4.269669 32.663189 16.481107
2009-09-29 07:41:34 51°18.447 2°52.573 17.3264 4.269254 32.659642 16.515931
2009-09-29 07:42:35 51°18.631 2°52.578 17.3298 4.271744 32.679634 16.550755
2009-09-29 07:43:34 51°18.806 2°52.583 17.339 4.271952 32.678178 16.585579
2009-09-29 07:44:34 51°18.982 2°52.588 17.3499 4.274546 32.694532 16.620403
2009-09-29 07:45:35 51°19.166 2°52.595 17.3808 4.278489 32.714006 16.655227
2009-09-29 07:46:35 51°19.347 2°52.6 17.3965 4.282224 32.724591 16.690051
2009-09-29 07:47:35 51°19.53 2°52.602 17.4035 4.285337 32.740187 16.690051
2009-09-29 07:48:34 51°19.708 2°52.618 17.4048 4.288139 32.759581 16.724875
2009-09-29 07:49:35 51°19.891 2°52.641 17.4015 4.288139 32.759581 16.724875
2009-09-29 07:50:34 51°20.069 2°52.664 17.3969 4.2898 32.77634 16.724875
2009-09-29 07:51:35 51°20.254 2°52.685 17.3915 4.28897 32.773133 16.690051
2009-09-29 07:52:34 51°20.431 2°52.707 17.3807 4.288451 32.77517 16.724875
2009-09-29 07:53:35 51°20.619 2°52.731 17.3738 4.287206 32.772945 16.724875
2009-09-29 07:54:35 51°20.798 2°52.754 17.3663 4.284611 32.754668 16.759699
2009-09-29 07:55:34 51°20.974 2°52.776 17.3638 4.284508 32.759603 16.794523
2009-09-29 07:56:34 51°21.156 2°52.808 17.373 4.285545 32.767174 16.829347
2009-09-29 07:57:34 51°21.336 2°52.847 17.3817 4.287725 32.779318 16.829347
2009-09-29 07:58:35 51°21.517 2°52.888 17.3907 4.287932 32.776561 16.864171
2009-09-29 07:59:34 51°21.697 2°52.931 17.4067 4.296753 32.840889 16.898995
2009-09-29 08:00:35 51°21.881 2°52.98 17.4232 4.300385 32.859592 16.968644
2009-09-29 08:01:34 51°22.062 2°53.026 17.4342 4.306611 32.903679 16.968644
2009-09-29 08:02:34 51°22.242 2°53.073 17.4444 4.310451 32.926078 17.038292
2009-09-29 08:03:34 51°22.421 2°53.118 17.4508 4.314187 32.949531 17.038292
2009-09-29 08:04:34 51°22.602 2°53.165 17.4546 4.317612 32.974217 17.038292
2009-09-29 08:05:34 51°22.785 2°53.209 17.4491 4.320518 32.997721 17.073116
2009-09-29 08:06:34 51°22.968 2°53.252 17.442 4.321037 33.009305 17.073116
2009-09-29 08:07:35 51°23.151 2°53.299 17.4361 4.322905 33.029162 17.10794
2009-09-29 08:08:34 51°23.331 2°53.344 17.4391 4.32415 33.042403 17.10794
2009-09-29 08:09:34 51°23.513 2°53.391 17.442 4.32498 33.04754 17.142764
2009-09-29 08:10:35 51°23.701 2°53.44 17.4427 4.326433 33.057995 17.142764
2009-09-29 08:11:34 51°23.886 2°53.488 17.4466 4.328717 33.076193 17.142764
2009-09-29 08:12:36 51°24.073 2°53.536 17.4594 4.331623 33.0971 17.177588
2009-09-29 08:13:34 51°24.247 2°53.579 17.4789 4.340755 33.162704 17.177588
2009-09-29 08:14:35 51°24.431 2°53.626 17.4954 4.347294 33.203512 17.212412
2009-09-29 08:15:34 51°24.611 2°53.67 17.4969 4.350719 33.224256 17.247236
2009-09-29 08:16:35 51°24.797 2°53.715 17.4988 4.349992 33.215438 17.247236
2009-09-29 08:17:34 51°24.976 2°53.761 17.4991 4.350926 33.222759 17.247236
2009-09-29 08:18:35 51°25.16 2°53.81 17.4986 4.349785 33.213666 17.247236
2009-09-29 08:19:36 51°25.342 2°53.853 17.4999 4.349785 33.212359 17.247236
2009-09-29 08:20:34 51°25.512 2°53.897 17.5021 4.352172 33.232738 17.28206
2009-09-29 08:21:34 51°25.691 2°53.935 17.5123 4.353313 33.236598 17.28206
2009-09-29 08:22:34 51°25.869 2°53.955 17.5219 4.355078 33.244465 17.316884
2009-09-29 08:23:35 51°26.054 2°53.969 17.538 4.357257 33.254564 17.351708
2009-09-29 08:24:34 51°26.237 2°53.987 17.5423 4.359437 33.26466 17.386532
2009-09-29 08:25:35 51°26.424 2°54.003 17.5423 4.361408 33.275598 17.386532
2009-09-29 08:26:35 51°26.607 2°54.022 17.5377 4.362446 33.284452 17.386532
2009-09-29 08:27:34 51°26.784 2°54.04 17.5313 4.362654 33.291459 17.421356
2009-09-29 08:28:35 51°26.97 2°54.063 17.5238 4.36255 33.296465 17.421356
2009-09-29 08:29:34 51°27.154 2°54.085 17.5243 4.364315 33.31611 17.45618
2009-09-29 08:30:34 51°27.341 2°54.108 17.5276 4.365664 33.327628 17.45618
2009-09-29 08:31:34 51°27.528 2°54.128 17.532 4.367948 33.343842 17.45618
2009-09-29 08:32:35 51°27.716 2°54.147 17.5474 4.371995 33.37315 17.491004
2009-09-29 08:33:35 51°27.895 2°54.167 17.547 4.377393 33.410031 17.491004
2009-09-29 08:34:35 51°28.077 2°54.184 17.5531 4.380299 33.431554 17.525828
2009-09-29 08:35:35 51°28.262 2°54.2 17.5552 4.382582 33.447102 17.525828
2009-09-29 08:36:34 51°28.44 2°54.218 17.5582 4.384451 33.461735 17.525828
2009-09-29 08:37:35 51°28.624 2°54.236 17.5624 4.387357 33.48457 17.560652
2009-09-29 08:38:34 51°28.805 2°54.255 17.5695 4.391613 33.517608 17.595476
2009-09-29 08:39:35 51°28.994 2°54.271 17.5778 4.397737 33.562641 17.630301
2009-09-29 08:40:35 51°29.179 2°54.291 17.5837 4.402926 33.600352 17.665125
2009-09-29 08:41:34 51°29.359 2°54.309 17.5923 4.407286 33.632289 17.699949
2009-09-29 08:42:35 51°29.546 2°54.331 17.5988 4.411127 33.657148 17.734773
2009-09-29 08:43:35 51°29.728 2°54.357 17.6004 4.413618 33.674449 17.734773
2009-09-29 08:44:35 51°29.914 2°54.381 17.6017 4.414033 33.676671 17.699949
2009-09-29 08:45:35 51°30.098 2°54.408 17.5941 4.413825 33.677543 17.699949
2009-09-29 08:46:35 51°30.284 2°54.432 17.5875 4.413618 33.680399 17.699949
2009-09-29 08:47:34 51°30.47 2°54.459 17.5832 4.413929 33.688349 17.699949
2009-09-29 08:48:35 51°30.662 2°54.486 17.5837 4.415694 33.704742 17.734773
2009-09-29 08:49:34 51°30.848 2°54.516 17.5825 4.418497 33.728016 17.769597
2009-09-29 08:50:35 51°31.038 2°54.538 17.5944 4.421922 33.757938 17.804421
2009-09-29 08:51:35 51°31.223 2°54.561 17.609 4.438947 33.892757 17.874069
2009-09-29 08:52:35 51°31.407 2°54.582 17.6217 4.452546 33.997643 17.908893
2009-09-29 08:53:35 51°31.594 2°54.603 17.6307 4.461992 34.068366 17.943717
2009-09-29 08:54:35 51°31.779 2°54.625 17.6398 4.469675 34.126001 17.943717
2009-09-29 08:55:35 51°31.964 2°54.647 17.6452 4.472997 34.147699 17.943717
2009-09-29 08:56:35 51°32.148 2°54.657 17.6512 4.476838 34.17517 17.943717
2009-09-29 08:57:35 51°32.336 2°54.663 17.6538 4.478499 34.185345 17.943717
2009-09-29 08:58:35 51°32.52 2°54.673 17.6478 4.479433 34.19199 17.943717
2009-09-29 08:59:35 51°32.706 2°54.684 17.6366 4.476942 34.178068 17.943717
2009-09-29 09:00:35 51°32.895 2°54.689 17.628 4.474242 34.163037 17.978541
2009-09-29 09:01:35 51°33.079 2°54.696 17.6175 4.473308 34.163092 17.978541
2009-09-29 09:02:35 51°33.256 2°54.745 17.6147 4.471647 34.152911 17.978541
2009-09-29 09:03:35 51°33.344 2°54.844 17.6072 4.470713 34.152294 18.013365
2009-09-29 09:04:35 51°33.397 2°54.922 17.6078 4.470402 34.152312 18.013365
2009-09-29 09:05:35 51°33.437 2°54.987 17.6023 4.470194 34.151206 17.978541
2009-09-29 09:06:35 51°33.467 2°55.043 17.6013 4.469675 34.149448 17.978541
2009-09-29 09:07:35 51°33.489 2°55.092 17.6003 4.466041 34.117701 17.943717
2009-09-29 09:08:35 51°33.511 2°55.141 17.6002 4.469052 34.144791 17.943717
2009-09-29 09:09:35 51°33.532 2°55.189 17.6007 4.468325 34.140586 17.908893
2009-09-29 09:10:35 51°33.555 2°55.236 17.5955 4.468014 34.139263 17.908893
2009-09-29 09:11:35 51°33.58 2°55.288 17.5957 4.467391 34.135945 17.874069
2009-09-29 09:12:35 51°33.599 2°55.332 17.5963 4.467287 34.133717 17.874069
2009-09-29 09:13:35 51°33.613 2°55.366 17.5962 4.467287 34.131706 17.874069
2009-09-29 09:14:35 51°33.625 2°55.4 17.5959 4.46708 34.13127 17.839245
2009-09-29 09:15:35 51°33.631 2°55.43 17.5953 4.466768 34.129277 17.874069
2009-09-29 09:16:35 51°33.633 2°55.46 17.6032 4.466664 34.126378 17.804421
2009-09-29 09:17:35 51°33.636 2°55.488 17.601 4.466976 34.123682 17.804421
2009-09-29 09:18:35 51°33.638 2°55.515 17.5987 4.466664 34.123698 17.769597
2009-09-29 09:19:35 51°33.639 2°55.541 17.5974 4.466249 34.121487 17.769597
2009-09-29 09:20:35 51°33.641 2°55.567 17.5962 4.465834 34.121285 17.769597
2009-09-29 09:21:35 51°33.641 2°55.594 17.5922 4.465419 34.119073 17.769597
2009-09-29 09:22:35 51°33.643 2°55.62 17.5907 4.465107 34.118419 17.769597
2009-09-29 09:23:35 51°33.645 2°55.646 17.5908 4.465003 34.116861 17.769597
2009-09-29 09:24:35 51°33.645 2°55.67 17.5934 4.4649 34.115303 17.769597
2009-09-29 09:25:35 51°33.646 2°55.695 17.5955 4.465003 34.115521 17.734773
2009-09-29 09:26:35 51°33.648 2°55.722 17.5929 4.464796 34.114415 17.769597
2009-09-29 09:27:35 51°33.65 2°55.748 17.5939 4.4649 34.114633 17.769597
2009-09-29 09:28:35 51°33.651 2°55.775 17.594 4.4649 34.113963 17.769597
2009-09-29 09:29:35 51°33.651 2°55.8 17.5924 4.465003 34.114181 17.839245
2009-09-29 09:30:35 51°33.651 2°55.824 17.5959 4.46438 34.112203 17.804421
2009-09-29 09:31:35 51°33.652 2°55.85 17.5914 4.464692 34.113527 17.804421
2009-09-29 09:32:35 51°33.654 2°55.876 17.5919 4.464069 34.110208 17.839245
2009-09-29 09:33:35 51°33.655 2°55.902 17.5948 4.464484 34.111081 17.839245
2009-09-29 09:34:35 51°33.656 2°55.926 17.5908 4.463965 34.106641 17.804421
2009-09-29 09:35:35 51°33.658 2°55.953 17.5952 4.463654 34.104647 17.804421
2009-09-29 09:36:35 51°33.661 2°55.981 17.5953 4.464069 34.108199 17.839245
2009-09-29 09:37:35 51°33.663 2°56.009 17.5957 4.464277 34.107966 17.839245
2009-09-29 09:38:35 51°33.666 2°56.036 17.5948 4.464173 34.107747 17.874069
2009-09-29 09:39:35 51°33.669 2°56.063 17.5944 4.464069 34.10686 17.874069
2009-09-29 09:40:35 51°33.672 2°56.091 17.5988 4.464069 34.10686 17.874069
2009-09-29 09:41:35 51°33.677 2°56.122 17.5962 4.46438 34.107514 17.874069
2009-09-29 09:42:35 51°33.682 2°56.152 17.5987 4.464277 34.106626 17.908893
2009-09-29 09:43:35 51°33.683 2°56.178 17.5964 4.464484 34.107732 17.908893
2009-09-29 09:44:35 51°33.683 2°56.204 17.599 4.464484 34.108402 17.908893
2009-09-29 09:45:35 51°33.684 2°56.229 17.5976 4.464588 34.10996 17.943717
2009-09-29 09:46:34 51°33.687 2°56.256 17.599 4.464692 34.110178 17.943717
2009-09-29 09:47:35 51°33.692 2°56.286 17.6 4.464796 34.111066 17.943717
2009-09-29 09:48:35 51°33.696 2°56.313 17.6024 4.465211 34.113278 17.943717
2009-09-29 09:49:35 51°33.699 2°56.34 17.601 4.465522 34.113932 17.943717
2009-09-29 09:50:35 51°33.701 2°56.368 17.6012 4.46573 34.115708 17.978541
2009-09-29 09:51:35 51°33.703 2°56.396 17.6049 4.466145 34.11792 17.978541
2009-09-29 09:52:35 51°33.705 2°56.423 17.6095 4.466768 34.119897 17.943717
2009-09-29 09:53:35 51°33.708 2°56.45 17.6071 4.466976 34.122343 17.978541
2009-09-29 09:54:35 51°33.709 2°56.476 17.6128 4.467391 34.125224 17.978541
2009-09-29 09:55:35 51°33.713 2°56.502 17.6115 4.468118 34.12608 18.013365
2009-09-29 09:56:35 51°33.715 2°56.529 17.6119 4.468221 34.128307 18.013365
2009-09-29 09:57:35 51°33.719 2°56.558 17.6099 4.468221 34.127637 18.013365
2009-09-29 09:58:35 51°33.723 2°56.586 17.6089 4.468014 34.127201 18.048189
2009-09-29 09:59:35 51°33.726 2°56.613 17.6086 4.467806 34.126096 18.048189
2009-09-29 10:00:35 51°33.729 2°56.64 17.6122 4.467598 34.12432 18.048189
2009-09-29 10:01:35 51°33.732 2°56.666 17.6142 4.467495 34.123433 18.048189
2009-09-29 10:02:35 51°33.735 2°56.693 17.6086 4.467598 34.122981 18.048189
2009-09-29 10:03:35 51°33.74 2°56.72 17.6102 4.467391 34.121875 18.048189
2009-09-29 10:04:35 51°33.744 2°56.749 17.6134 4.467495 34.122093 18.048189
2009-09-29 10:05:35 51°33.747 2°56.775 17.6188 4.467806 34.121408 18.083013
2009-09-29 10:06:35 51°33.751 2°56.802 17.6151 4.467806 34.122077 18.083013
2009-09-29 10:07:35 51°33.755 2°56.829 17.6125 4.467598 34.121641 18.083013
2009-09-29 10:08:35 51°33.76 2°56.858 17.6141 4.467598 34.121641 18.117837
2009-09-29 10:09:35 51°33.766 2°56.886 17.6161 4.467495 34.120084 18.117837
2009-09-29 10:10:35 51°33.78 2°56.928 17.6166 4.467598 34.118963 18.117837
2009-09-29 10:11:35 51°33.803 2°57.033 17.6184 4.467391 34.118527 18.117837
2009-09-29 10:12:35 51°33.774 2°57.139 17.6203 4.467287 34.114961 18.222309
2009-09-29 10:13:35 51°33.715 2°57.155 17.6191 4.467183 34.113405 18.326782
2009-09-29 10:14:35 51°33.673 2°57.108 17.6227 4.46791 34.116939 18.361606
2009-09-29 10:15:35 51°33.645 2°57.053 17.6255 4.468117 34.117376 18.39643
2009-09-29 10:16:35 51°33.62 2°57 17.6264 4.468636 34.119804 18.361606
2009-09-29 10:17:35 51°33.592 2°56.95 17.6361 4.469778 34.125549 18.361606
2009-09-29 10:18:35 51°33.567 2°56.895 17.6322 4.47092 34.131293 18.361606
2009-09-29 10:19:35 51°33.535 2°56.832 17.6378 4.471128 34.13039 18.361606
2009-09-29 10:20:35 51°33.516 2°56.749 17.6367 4.471024 34.131511 18.361606
2009-09-29 10:21:35 51°33.486 2°56.672 17.6407 4.471128 34.131729 18.361606
2009-09-29 10:22:35 51°33.462 2°56.59 17.6422 4.472374 34.13702 18.361606
2009-09-29 10:23:35 51°33.438 2°56.506 17.6448 4.473515 34.14477 18.361606
2009-09-29 10:24:35 51°33.404 2°56.43 17.6522 4.474761 34.150729 18.39643
2009-09-29 10:25:35 51°33.386 2°56.343 17.6564 4.476007 34.160034 18.39643
2009-09-29 10:26:35 51°33.36 2°56.261 17.6559 4.477253 34.168 18.361606
2009-09-29 10:27:35 51°33.338 2°56.193 17.6561 4.477979 34.17019 18.431254
2009-09-29 10:28:35 51°33.334 2°56.171 17.6594 4.478187 34.173973 18.431254
2009-09-29 10:29:35 51°33.335 2°56.174 17.6613 4.478499 34.175295 18.431254
2009-09-29 10:30:35 51°33.336 2°56.196 17.6607 4.478602 34.176182 18.39643
2009-09-29 10:31:35 51°33.341 2°56.228 17.6577 4.478914 34.176833 18.39643
2009-09-29 10:32:35 51°33.347 2°56.26 17.6609 4.479225 34.180164 18.361606
2009-09-29 10:33:35 51°33.354 2°56.292 17.663 4.479848 34.184146 18.326782
2009-09-29 10:34:35 51°33.361 2°56.323 17.6607 4.480056 34.18525 18.326782
2009-09-29 10:35:35 51°33.369 2°56.355 17.6641 4.480263 34.188364 18.291958
2009-09-29 10:36:35 51°33.377 2°56.386 17.6636 4.480367 34.186571 18.291958
2009-09-29 10:37:35 51°33.384 2°56.416 17.6641 4.480886 34.188326 18.326782
2009-09-29 10:38:35 51°33.391 2°56.445 17.6672 4.480782 34.190119 18.291958
2009-09-29 10:39:35 51°33.396 2°56.474 17.6658 4.481094 34.190099 18.291958
2009-09-29 10:40:35 51°33.402 2°56.502 17.672 4.481301 34.191203 18.291958
2009-09-29 10:41:35 51°33.408 2°56.532 17.6698 4.481613 34.191854 18.257134
2009-09-29 10:42:35 51°33.415 2°56.563 17.6699 4.481717 34.192071 18.257134
2009-09-29 10:43:35 51°33.421 2°56.591 17.6733 4.482028 34.193392 18.291958
2009-09-29 10:44:35 51°33.427 2°56.62 17.6739 4.482443 34.194929 18.291958
2009-09-29 10:45:35 51°33.433 2°56.651 17.6747 4.482547 34.195816 18.291958
2009-09-29 10:46:35 51°33.44 2°56.679 17.6775 4.482651 34.196702 18.291958
2009-09-29 10:47:35 51°33.447 2°56.707 17.6758 4.482859 34.196466 18.291958
2009-09-29 10:48:35 51°33.453 2°56.735 17.677 4.482962 34.196683 18.291958
2009-09-29 10:49:35 51°33.46 2°56.764 17.6777 4.482859 34.196466 18.257134
2009-09-29 10:50:35 51°33.466 2°56.791 17.681 4.482962 34.196013 18.257134
2009-09-29 10:51:35 51°33.473 2°56.819 17.6796 4.48317 34.195777 18.257134
2009-09-29 10:52:35 51°33.48 2°56.847 17.6834 4.482962 34.194004 18.291958
2009-09-29 10:53:35 51°33.488 2°56.874 17.6828 4.48317 34.193098 18.291958
2009-09-29 10:54:35 51°33.495 2°56.902 17.6793 4.482859 34.191778 18.257134
2009-09-29 10:55:35 51°33.5 2°56.93 17.6834 4.482651 34.190674 18.291958
2009-09-29 10:56:35 51°33.506 2°56.956 17.6812 4.482443 34.188232 18.326782
2009-09-29 10:57:35 51°33.513 2°56.983 17.6823 4.482132 34.186241 18.291958
2009-09-29 10:58:35 51°33.517 2°57.007 17.6796 4.482132 34.184233 18.326782
2009-09-29 10:59:35 51°33.521 2°57.031 17.6841 4.481717 34.182695 18.326782
2009-09-29 11:00:34 51°33.526 2°57.055 17.6806 4.48182 34.181573 18.326782
2009-09-29 11:01:34 51°33.531 2°57.08 17.6765 4.481405 34.179366 18.361606
2009-09-29 11:02:34 51°33.536 2°57.105 17.68 4.481301 34.17848 18.361606
2009-09-29 11:03:34 51°33.54 2°57.131 17.6799 4.481094 34.176707 18.361606
2009-09-29 11:04:34 51°33.544 2°57.156 17.6789 4.480886 34.176272 18.361606
2009-09-29 11:05:35 51°33.548 2°57.18 17.6862 4.480886 34.174264 18.361606
2009-09-29 11:06:34 51°33.549 2°57.201 17.6781 4.481094 34.174029 18.361606
2009-09-29 11:07:35 51°33.554 2°57.226 17.6795 4.480367 34.171839 18.39643
2009-09-29 11:08:35 51°33.56 2°57.253 17.6824 4.480471 34.170718 18.39643
2009-09-29 11:09:35 51°33.566 2°57.28 17.6776 4.480159 34.170066 18.361606
2009-09-29 11:10:35 51°33.572 2°57.307 17.6779 4.480055 34.16918 18.361606
2009-09-29 11:11:35 51°33.578 2°57.333 17.6804 4.479848 34.167407 18.39643
2009-09-29 11:12:35 51°33.583 2°57.359 17.684 4.479744 34.165851 18.39643
2009-09-29 11:13:35 51°33.587 2°57.385 17.679 4.480159 34.165382 18.39643
2009-09-29 11:14:35 51°33.589 2°57.407 17.6815 4.479848 34.164061 18.431254
2009-09-29 11:15:35 51°33.593 2°57.43 17.6821 4.479329 34.163643 18.431254
2009-09-29 11:16:35 51°33.583 2°57.435 17.6801 4.479329 34.162305 18.431254
2009-09-29 11:17:35 51°33.549 2°57.316 17.671 4.479329 34.160967 18.500902
2009-09-29 11:18:35 51°33.493 2°57.147 17.6773 4.478394 34.15901 18.605374
2009-09-29 11:19:35 51°33.454 2°56.953 17.6732 4.478706 34.160332 18.675022
2009-09-29 11:20:35 51°33.405 2°56.76 17.6772 4.479017 34.165668 18.709846
2009-09-29 11:21:35 51°33.338 2°56.585 17.674 4.479848 34.171423 18.74467
2009-09-29 11:22:35 51°33.274 2°56.409 17.6727 4.481094 34.182062 18.74467
2009-09-29 11:23:35 51°33.226 2°56.339 17.6744 4.482132 34.192939 18.709846
2009-09-29 11:24:35 51°33.221 2°56.355 17.671 4.482651 34.196702 18.709846
2009-09-29 11:25:35 51°33.222 2°56.378 17.6685 4.482963 34.202043 18.675022
2009-09-29 11:26:35 51°33.225 2°56.402 17.671 4.483274 34.207384 18.675022
2009-09-29 11:27:35 51°33.229 2°56.425 17.6705 4.483689 34.207581 18.640198
2009-09-29 11:28:35 51°33.233 2°56.448 17.6713 4.483897 34.210695 18.605374
2009-09-29 11:29:35 51°33.238 2°56.472 17.6718 4.484416 34.215129 18.57055
2009-09-29 11:30:35 51°33.244 2°56.498 17.6702 4.48452 34.214005 18.535726
2009-09-29 11:31:35 51°33.251 2°56.526 17.6708 4.48452 34.216016 18.535726
2009-09-29 11:32:35 51°33.257 2°56.553 17.6718 4.484727 34.216449 18.500902
2009-09-29 11:33:35 51°33.263 2°56.581 17.6722 4.484624 34.216233 18.466078
2009-09-29 11:34:35 51°33.267 2°56.609 17.67 4.484831 34.216666 18.466078
2009-09-29 11:35:35 51°33.271 2°56.634 17.6726 4.484624 34.216903 18.466078
2009-09-29 11:36:35 51°33.274 2°56.659 17.6747 4.484831 34.216666 18.466078
2009-09-29 11:37:35 51°33.281 2°56.685 17.673 4.484831 34.216666 18.466078
2009-09-29 11:38:35 51°33.287 2°56.714 17.6718 4.484727 34.21779 18.466078
2009-09-29 11:39:35 51°33.295 2°56.741 17.6696 4.484831 34.217336 18.466078
2009-09-29 11:40:35 51°33.301 2°56.765 17.6737 4.484831 34.215995 18.431254
2009-09-29 11:41:35 51°33.307 2°56.792 17.678 4.484935 34.216882 18.466078
2009-09-29 11:42:35 51°33.314 2°56.817 17.6719 4.484935 34.216212 18.466078
2009-09-29 11:43:35 51°33.32 2°56.842 17.6735 4.48452 34.216016 18.466078
2009-09-29 11:44:35 51°33.326 2°56.868 17.6702 4.484624 34.216233 18.466078
2009-09-29 11:45:35 51°33.332 2°56.895 17.6684 4.484624 34.216233 18.466078
2009-09-29 11:46:35 51°33.339 2°56.921 17.6696 4.484416 34.215129 18.466078
2009-09-29 11:47:35 51°33.345 2°56.948 17.668 4.48452 34.214676 18.431254
2009-09-29 11:48:35 51°33.351 2°56.973 17.6725 4.484416 34.214459 18.431254
2009-09-29 11:49:35 51°33.358 2°56.999 17.6727 4.48452 34.214005 18.466078
2009-09-29 11:50:35 51°33.366 2°57.026 17.6694 4.48452 34.214005 18.431254
2009-09-29 11:51:35 51°33.374 2°57.051 17.6683 4.484208 34.213355 18.431254
2009-09-29 11:52:35 51°33.38 2°57.073 17.6682 4.484105 34.212469 18.466078
2009-09-29 11:53:35 51°33.385 2°57.097 17.6671 4.484001 34.212252 18.466078
2009-09-29 11:54:35 51°33.391 2°57.12 17.6717 4.483689 34.210932 18.431254
2009-09-29 11:55:35 51°33.396 2°57.141 17.6712 4.483897 34.210695 18.466078
2009-09-29 11:56:35 51°33.402 2°57.162 17.6734 4.483897 34.210025 18.466078
2009-09-29 11:57:35 51°33.409 2°57.184 17.6726 4.483897 34.210025 18.431254
2009-09-29 11:58:35 51°33.415 2°57.205 17.6741 4.484001 34.208901 18.431254
2009-09-29 11:59:35 51°33.421 2°57.227 17.6721 4.484001 34.208231 18.466078
2009-09-29 12:00:35 51°33.426 2°57.248 17.6699 4.483482 34.205807 18.466078
2009-09-29 12:01:35 51°33.431 2°57.27 17.6713 4.483482 34.205807 18.500902
2009-09-29 12:02:35 51°33.433 2°57.29 17.6707 4.483274 34.203363 18.466078
2009-09-29 12:03:35 51°33.437 2°57.31 17.669 4.482963 34.202713 18.500902
2009-09-29 12:04:35 51°33.441 2°57.33 17.6711 4.482755 34.200939 18.466078
2009-09-29 12:05:35 51°33.446 2°57.351 17.6721 4.482443 34.198279 18.500902
2009-09-29 12:06:35 51°33.45 2°57.375 17.6715 4.482443 34.195599 18.500902
2009-09-29 12:07:35 51°33.453 2°57.396 17.6742 4.482236 34.193825 18.500902
2009-09-29 12:08:35 51°33.426 2°57.365 17.6806 4.482028 34.192052 18.500902
2009-09-29 12:09:35 51°33.403 2°57.2 17.6695 4.481301 34.187184 18.675022
2009-09-29 12:10:35 51°33.381 2°56.968 17.6702 4.481094 34.18608 18.74467
2009-09-29 12:11:35 51°33.313 2°56.768 17.6679 4.481301 34.191203 18.779494
2009-09-29 12:12:35 51°33.26 2°56.681 17.6599 4.481509 34.193647 18.779494
2009-09-29 12:13:35 51°33.25 2°56.685 17.6614 4.481301 34.192543 18.779494
2009-09-29 12:14:35 51°33.252 2°56.704 17.6585 4.480679 34.191912 18.779494
2009-09-29 12:15:35 51°33.255 2°56.724 17.6583 4.480367 34.191261 18.779494
2009-09-29 12:16:35 51°33.257 2°56.744 17.662 4.480367 34.190591 18.74467
2009-09-29 12:17:35 51°33.259 2°56.763 17.66 4.480575 34.190355 18.709846
2009-09-29 12:18:35 51°33.262 2°56.783 17.6602 4.480471 34.188798 18.675022
2009-09-29 12:19:35 51°33.266 2°56.803 17.6595 4.480263 34.188364 18.640198
2009-09-29 12:20:35 51°33.272 2°56.824 17.6584 4.48016 34.186137 18.605374
2009-09-29 12:21:35 51°33.278 2°56.846 17.6606 4.479952 34.185033 18.605374
2009-09-29 12:22:35 51°33.283 2°56.867 17.6603 4.479848 34.183476 18.57055
2009-09-29 12:23:35 51°33.288 2°56.889 17.6633 4.480056 34.18257 18.57055
2009-09-29 12:24:35 51°33.294 2°56.911 17.6634 4.479848 34.182136 18.500902
2009-09-29 12:25:35 51°33.3 2°56.936 17.6579 4.479848 34.180797 18.535726
2009-09-29 12:26:35 51°33.306 2°56.958 17.6592 4.479225 34.178824 18.535726
2009-09-29 12:27:35 51°33.312 2°56.979 17.6561 4.478291 34.173521 18.535726
2009-09-29 12:28:35 51°33.32 2°57.005 17.6584 4.477772 34.169756 18.500902
2009-09-29 12:29:35 51°33.327 2°57.029 17.6573 4.47746 34.165086 18.535726
2009-09-29 12:30:35 51°33.333 2°57.053 17.6555 4.476318 34.156669 18.535726
2009-09-29 12:31:35 51°33.341 2°57.077 17.6522 4.47528 34.150477 18.57055
2009-09-29 12:32:35 51°33.347 2°57.1 17.6495 4.474242 34.142947 18.535726
2009-09-29 12:33:35 51°33.348 2°57.118 17.6531 4.473412 34.13719 18.535726
2009-09-29 12:34:35 51°33.336 2°57.103 17.6463 4.472581 34.129425 18.535726
2009-09-29 12:35:35 51°33.349 2°57.037 17.636 4.469051 34.10529 18.640198
2009-09-29 12:36:35 51°33.405 2°57.02 17.6293 4.461888 34.056787 18.814318
2009-09-29 12:37:35 51°33.445 2°57.065 17.6218 4.459189 34.039735 18.849142
2009-09-29 12:38:35 51°33.468 2°57.131 17.6255 4.458982 34.038629 18.849142
2009-09-29 12:39:35 51°33.491 2°57.204 17.6299 4.460331 34.048825 18.883966
2009-09-29 12:40:35 51°33.518 2°57.264 17.6317 4.461577 34.056798 18.849142
2009-09-29 12:41:35 51°33.54 2°57.305 17.6343 4.463342 34.068537 18.849142
2009-09-29 12:42:35 51°33.556 2°57.333 17.6396 4.464587 34.077177 18.849142
2009-09-29 12:43:35 51°33.568 2°57.356 17.6393 4.465626 34.087385 18.849142
2009-09-29 12:44:35 51°33.576 2°57.38 17.643 4.466352 34.091589 18.814318
2009-09-29 12:45:35 51°33.588 2°57.406 17.647 4.465418 34.079595 18.779494
2009-09-29 12:46:35 51°33.622 2°57.485 17.6469 4.468117 34.102657 18.709846
2009-09-29 12:47:35 51°33.601 2°57.611 17.6378 4.468636 34.105754 18.779494
2009-09-29 12:48:35 51°33.524 2°57.602 17.6333 4.465833 34.085148 18.883966
2009-09-29 12:49:35 51°33.469 2°57.449 17.6284 4.46085 34.047917 18.953615
2009-09-29 12:50:35 51°33.403 2°57.278 17.6311 4.456802 34.017332 18.988439
2009-09-29 12:51:35 51°33.339 2°57.103 17.6184 4.454518 33.999821 19.023263
2009-09-29 12:52:35 51°33.273 2°56.927 17.6141 4.450054 33.969684 19.023263
2009-09-29 12:53:35 51°33.211 2°56.747 17.6059 4.44777 33.953503 19.023263
2009-09-29 12:54:35 51°33.14 2°56.575 17.6076 4.444967 33.936882 19.058087
2009-09-29 12:55:35 51°33.117 2°56.382 17.5955 4.443099 33.922248 19.058087
2009-09-29 12:56:35 51°33.111 2°56.276 17.5862 4.440919 33.909612 19.092911
2009-09-29 12:57:35 51°33.116 2°56.243 17.5885 4.438428 33.89298 19.092911
2009-09-29 12:58:35 51°33.119 2°56.235 17.5876 4.437493 33.886993 19.058087
2009-09-29 12:59:35 51°33.121 2°56.246 17.5862 4.436767 33.880783 19.023263
2009-09-29 13:00:35 51°33.123 2°56.269 17.578 4.435729 33.872577 19.023263
2009-09-29 13:01:35 51°33.126 2°56.293 17.578 4.434275 33.863482 18.953615
2009-09-29 13:02:35 51°33.129 2°56.319 17.5817 4.43386 33.858604 18.918791
2009-09-29 13:03:35 51°33.133 2°56.346 17.5771 4.433445 33.85572 18.883966
2009-09-29 13:04:35 51°33.138 2°56.374 17.5836 4.432926 33.852615 18.883966
2009-09-29 13:05:35 51°33.143 2°56.401 17.5792 4.43303 33.850178 18.918791
2009-09-29 13:06:35 51°33.147 2°56.428 17.5825 4.432614 33.847959 18.883966
2009-09-29 13:07:35 51°33.152 2°56.455 17.5807 4.432303 33.845962 18.883966
2009-09-29 13:08:35 51°33.157 2°56.481 17.5836 4.431992 33.843301 18.883966
2009-09-29 13:09:35 51°33.161 2°56.507 17.5865 4.431784 33.840863 18.849142
2009-09-29 13:10:35 51°33.157 2°56.521 17.5844 4.431369 33.838644 18.883966
2009-09-29 13:11:35 51°33.148 2°56.464 17.5814 4.431265 33.835763 18.953615
2009-09-29 13:12:35 51°33.161 2°56.438 17.5756 4.429915 33.828883 19.058087
2009-09-29 13:13:35 51°33.174 2°56.447 17.5715 4.429396 33.827105 19.092911
2009-09-29 13:14:35 51°33.183 2°56.468 17.5762 4.428774 33.82444 19.058087
2009-09-29 13:15:35 51°33.189 2°56.493 17.5764 4.428981 33.824221 19.058087
2009-09-29 13:16:35 51°33.194 2°56.519 17.5734 4.429708 33.829767 19.023263
2009-09-29 13:17:35 51°33.199 2°56.542 17.5822 4.430123 33.831322 18.988439
2009-09-29 13:18:35 51°33.202 2°56.565 17.5799 4.4295 33.825999 18.988439
2009-09-29 13:19:35 51°33.204 2°56.588 17.5812 4.429812 33.82866 18.953615
2009-09-29 13:20:35 51°33.207 2°56.61 17.5836 4.429396 33.823783 18.953615
2009-09-29 13:21:35 51°33.213 2°56.637 17.5802 4.429189 33.822674 18.918791
2009-09-29 13:22:35 51°33.23 2°56.674 17.5799 4.429293 33.827547 18.918791
2009-09-29 13:23:35 51°33.254 2°56.714 17.5783 4.429916 33.831541 18.918791
2009-09-29 13:24:35 51°33.276 2°56.747 17.5783 4.429708 33.829767 18.953615
2009-09-29 13:25:35 51°33.29 2°56.771 17.58 4.429708 33.829102 18.953615
2009-09-29 13:26:35 51°33.302 2°56.793 17.5817 4.429916 33.830876 18.988439
2009-09-29 13:27:35 51°33.309 2°56.816 17.5804 4.428047 33.81358 18.988439
2009-09-29 13:28:35 51°33.312 2°56.839 17.5813 4.43085 33.834873 18.953615
2009-09-29 13:29:35 51°33.313 2°56.86 17.5835 4.43085 33.836867 18.953615
2009-09-29 13:30:35 51°33.313 2°56.879 17.5794 4.430954 33.837754 18.953615
2009-09-29 13:31:35 51°33.315 2°56.899 17.5829 4.430954 33.837754 18.953615
2009-09-29 13:32:35 51°33.316 2°56.919 17.5792 4.431057 33.838641 18.953615
2009-09-29 13:33:35 51°33.318 2°56.937 17.5826 4.431057 33.839306 18.918791
2009-09-29 13:34:35 51°33.319 2°56.956 17.5817 4.431265 33.839086 18.883966
2009-09-29 13:35:35 51°33.319 2°56.974 17.5825 4.431161 33.838863 18.918791
2009-09-29 13:36:35 51°33.321 2°56.993 17.5819 4.431369 33.838644 18.953615
2009-09-29 13:37:35 51°33.323 2°57.012 17.5818 4.431369 33.838644 18.953615
2009-09-29 13:38:35 51°33.324 2°57.029 17.5865 4.431473 33.838201 18.953615
2009-09-29 13:39:35 51°33.324 2°57.045 17.5858 4.431576 33.838424 18.918791
2009-09-29 13:40:35 51°33.324 2°57.06 17.5905 4.431369 33.834657 18.918791
2009-09-29 13:41:35 51°33.324 2°57.077 17.5894 4.431161 33.832883 18.918791
2009-09-29 13:42:35 51°33.324 2°57.093 17.5932 4.43085 33.828893 18.918791
2009-09-29 13:43:35 51°33.324 2°57.108 17.5945 4.430746 33.826014 18.953615
2009-09-29 13:44:35 51°33.323 2°57.122 17.5913 4.430642 33.824463 18.918791
2009-09-29 13:45:35 51°33.322 2°57.137 17.5968 4.430538 33.821584 18.918791
2009-09-29 13:46:35 51°33.322 2°57.151 17.5919 4.430434 33.820697 18.918791
2009-09-29 13:47:35 51°33.321 2°57.165 17.591 4.429811 33.817369 18.953615
2009-09-29 13:48:35 51°33.321 2°57.181 17.5957 4.429604 33.814931 18.918791
2009-09-29 13:49:35 51°33.329 2°57.208 17.5979 4.429604 33.812939 18.918791
2009-09-29 13:50:35 51°33.353 2°57.297 17.593 4.429604 33.810948 18.918791
2009-09-29 13:51:35 51°33.302 2°57.394 17.6007 4.429396 33.807847 19.058087
2009-09-29 13:52:35 51°33.221 2°57.329 17.6024 4.431057 33.816059 19.162559
2009-09-29 13:53:35 51°33.213 2°57.166 17.6011 4.43168 33.821378 19.197383
2009-09-29 13:54:35 51°33.211 2°56.983 17.6027 4.431576 33.820492 19.197383
2009-09-29 13:55:35 51°33.187 2°56.799 17.6066 4.430642 33.813841 19.197383
2009-09-29 13:56:35 51°33.162 2°56.644 17.6025 4.429396 33.802539 19.197383
2009-09-29 13:57:35 51°33.136 2°56.559 17.6041 4.428669 33.796997 19.197383
2009-09-29 13:58:35 51°33.118 2°56.505 17.6022 4.42815 33.791902 19.162559
2009-09-29 13:59:35 51°33.108 2°56.465 17.5989 4.427631 33.788133 19.162559
2009-09-29 14:00:35 51°33.103 2°56.448 17.6031 4.42732 33.786137 19.127735
2009-09-29 14:01:35 51°33.099 2°56.443 17.6005 4.427112 33.785027 19.127735
2009-09-29 14:02:35 51°33.096 2°56.448 17.5967 4.426801 33.783031 19.058087
2009-09-29 14:03:35 51°33.093 2°56.461 17.597 4.42649 33.780372 19.023263
2009-09-29 14:04:35 51°33.088 2°56.473 17.5993 4.425867 33.776379 18.988439
2009-09-29 14:05:35 51°33.082 2°56.484 17.5998 4.426178 33.777712 18.988439
2009-09-29 14:06:35 51°33.074 2°56.492 17.5994 4.426386 33.777496 18.988439
2009-09-29 14:07:35 51°33.066 2°56.501 17.5992 4.426282 33.775284 18.988439
2009-09-29 14:08:35 51°33.046 2°56.508 17.6031 4.42597 33.773288 18.988439
2009-09-29 14:09:35 51°33.019 2°56.537 17.6024 4.426074 33.77086 18.988439
2009-09-29 14:10:35 51°33.009 2°56.6 17.6024 4.425451 33.769519 19.023263
2009-09-29 14:11:35 51°33.034 2°56.647 17.6029 4.425555 33.769743 19.058087
2009-09-29 14:12:35 51°33.055 2°56.663 17.6039 4.426074 33.774174 19.092911
2009-09-29 14:13:35 51°33.072 2°56.669 17.6083 4.426697 33.776178 19.058087
2009-09-29 14:14:35 51°33.085 2°56.679 17.6056 4.427008 33.778837 19.058087
2009-09-29 14:15:35 51°33.099 2°56.688 17.6092 4.427216 33.782598 19.023263
2009-09-29 14:16:35 51°33.116 2°56.696 17.6086 4.427528 33.785257 19.058087
2009-09-29 14:17:35 51°33.136 2°56.7 17.6094 4.427839 33.785264 19.023263
2009-09-29 14:18:35 51°33.159 2°56.7 17.6079 4.427735 33.787693 19.023263
2009-09-29 14:19:35 51°33.186 2°56.703 17.6049 4.428047 33.789026 19.023263
2009-09-29 14:20:35 51°33.23 2°56.677 17.6085 4.427735 33.786367 19.023263
2009-09-29 14:21:35 51°33.307 2°56.542 17.6061 4.427424 33.784371 19.058087
2009-09-29 14:22:35 51°33.375 2°56.329 17.6027 4.427112 33.781712 19.162559
2009-09-29 14:23:35 51°33.406 2°56.068 17.5988 4.427216 33.785914 19.232207
2009-09-29 14:24:35 51°33.424 2°55.782 17.5902 4.428254 33.800749 19.301855
2009-09-29 14:25:35 51°33.44 2°55.488 17.588 4.430642 33.824463 19.301855
2009-09-29 14:26:35 51°33.435 2°55.196 17.5883 4.434068 33.855724 19.336679
2009-09-29 14:27:35 51°33.404 2°54.909 17.5896 4.439985 33.904956 19.336679
2009-09-29 14:28:35 51°33.334 2°54.645 17.5976 4.445902 33.95353 19.371503
2009-09-29 14:29:35 51°33.177 2°54.547 17.5988 4.452027 34.004553 19.371503
2009-09-29 14:30:35 51°32.995 2°54.567 17.603 4.455245 34.026723 19.336679
2009-09-29 14:31:35 51°32.811 2°54.572 17.5987 4.453895 34.015186 19.267031
2009-09-29 14:32:35 51°32.627 2°54.548 17.5902 4.449431 33.982367 19.197383
2009-09-29 14:33:35 51°32.445 2°54.516 17.5927 4.429085 33.806515 19.232207
2009-09-29 14:34:35 51°32.261 2°54.492 17.5847 4.43905 33.890983 19.162559
2009-09-29 14:35:35 51°32.077 2°54.469 17.5839 4.432926 33.845967 19.162559
2009-09-29 14:36:35 51°31.891 2°54.448 17.5889 4.427735 33.806271 19.162559
2009-09-29 14:37:35 51°31.705 2°54.428 17.5793 4.42431 33.773027 19.162559
2009-09-29 14:38:35 51°31.519 2°54.407 17.5821 4.420054 33.741315 19.162559
2009-09-29 14:39:35 51°31.332 2°54.39 17.5763 4.41559 33.704518 19.232207
2009-09-29 14:40:35 51°31.146 2°54.368 17.5773 4.411334 33.668836 19.232207
2009-09-29 14:41:35 51°30.96 2°54.347 17.5844 4.409881 33.653122 19.232207
2009-09-29 14:42:35 51°30.774 2°54.324 17.5968 4.409673 33.646065 19.232207
2009-09-29 14:43:35 51°30.588 2°54.297 17.5951 4.407701 33.625269 19.232207
2009-09-29 14:44:35 51°30.401 2°54.275 17.5935 4.403653 33.590063 19.301855
2009-09-29 14:45:35 51°30.212 2°54.25 17.5876 4.400227 33.564789 19.301855
2009-09-29 14:46:35 51°30.023 2°54.224 17.5953 4.398774 33.551731 19.301855
2009-09-29 14:47:35 51°29.833 2°54.199 17.6045 4.40002 33.558406 19.301855
2009-09-29 14:48:35 51°29.643 2°54.173 17.6109 4.402303 33.571959 19.267031
2009-09-29 14:49:35 51°29.453 2°54.145 17.5992 4.402718 33.571548 19.232207
2009-09-29 14:50:35 51°29.267 2°54.115 17.599 4.39867 33.542944 19.232207
2009-09-29 14:51:35 51°29.08 2°54.083 17.5836 4.393584 33.503507 19.232207
2009-09-29 14:52:50 51°28.845 2°54.043 17.5823 4.387875 33.464014 19.232207
2009-09-29 14:53:50 51°28.658 2°54.01 17.5732 4.385592 33.449133 19.232207
2009-09-29 14:54:50 51°28.468 2°53.979 17.573 4.384762 33.445333 19.232207
2009-09-29 14:55:50 51°28.28 2°53.95 17.5811 4.3858 33.450904 19.301855
2009-09-29 14:56:50 51°28.091 2°53.923 17.5824 4.385903 33.449819 19.371503
2009-09-29 14:57:50 51°27.902 2°53.898 17.5857 4.384658 33.435256 19.371503
2009-09-29 14:58:50 51°27.713 2°53.867 17.584 4.382374 33.413814 19.371503
2009-09-29 14:59:50 51°27.523 2°53.834 17.5854 4.37926 33.387917 19.336679
2009-09-29 15:00:50 51°27.333 2°53.799 17.5844 4.376977 33.367138 19.336679
2009-09-29 15:01:50 51°27.142 2°53.762 17.5757 4.374693 33.35029 19.336679
2009-09-29 15:02:50 51°26.95 2°53.728 17.5765 4.371683 33.331828 19.336679
2009-09-29 15:03:50 51°26.759 2°53.697 17.5804 4.370645 33.322324 19.336679
2009-09-29 15:04:50 51°26.57 2°53.658 17.5726 4.369919 33.315475 19.371503
2009-09-29 15:05:50 51°26.379 2°53.622 17.565 4.36722 33.298354 19.371503
2009-09-29 15:06:50 51°26.186 2°53.59 17.5733 4.365664 33.287696 19.371503
2009-09-29 15:07:50 51°25.998 2°53.557 17.5433 4.362965 33.267955 19.441151
2009-09-29 15:08:50 51°25.81 2°53.53 17.5312 4.353417 33.205471 19.510799
2009-09-29 15:09:50 51°25.622 2°53.5 17.4994 4.345529 33.155157 19.475975
2009-09-29 15:10:50 51°25.43 2°53.469 17.4942 4.338783 33.112598 19.510799
2009-09-29 15:11:50 51°25.241 2°53.434 17.486 4.33432 33.079734 19.545624
2009-09-29 15:12:50 51°25.052 2°53.399 17.4806 4.331103 33.056842 19.545624
2009-09-29 15:13:50 51°24.863 2°53.363 17.4724 4.328405 33.041625 19.580448
2009-09-29 15:14:50 51°24.671 2°53.325 17.4704 4.32664 33.031123 19.545624
2009-09-29 15:15:50 51°24.484 2°53.288 17.4716 4.326537 33.025686 19.545624
2009-09-29 15:16:50 51°24.294 2°53.254 17.4729 4.32581 33.023388 19.580448
2009-09-29 15:17:50 51°24.102 2°53.221 17.469 4.325395 33.021797 19.580448
2009-09-29 15:18:50 51°23.909 2°53.184 17.4692 4.325395 33.020496 19.545624
2009-09-29 15:19:50 51°23.715 2°53.148 17.4697 4.325084 33.01979 19.580448
2009-09-29 15:20:50 51°23.52 2°53.111 17.4733 4.325084 33.01849 19.580448
2009-09-29 15:21:50 51°23.327 2°53.072 17.4806 4.32498 33.015004 19.580448
2009-09-29 15:22:50 51°23.134 2°53.033 17.4805 4.324357 33.007741 19.580448
2009-09-29 15:23:50 51°22.941 2°52.993 17.4664 4.322904 32.995346 19.615272
2009-09-29 15:24:50 51°22.748 2°52.958 17.4594 4.319168 32.971913 19.650096
2009-09-29 15:25:50 51°22.555 2°52.917 17.4546 4.314706 32.940977 19.615272
2009-09-29 15:26:50 51°22.363 2°52.881 17.4478 4.310658 32.909687 19.615272
2009-09-29 15:27:50 51°22.17 2°52.841 17.4366 4.306922 32.882995 19.615272
2009-09-29 15:28:50 51°21.979 2°52.802 17.4257 4.302149 32.84874 19.580448
2009-09-29 15:29:50 51°21.787 2°52.765 17.4263 4.29696 32.815466 19.545624
2009-09-29 15:30:50 51°21.595 2°52.724 17.4323 4.294884 32.793876 19.545624
2009-09-29 15:31:50 51°21.401 2°52.686 17.4335 4.293639 32.780667 19.580448
2009-09-29 15:32:50 51°21.208 2°52.647 17.4354 4.292705 32.770116 19.580448
2009-09-29 15:33:50 51°21.016 2°52.61 17.4331 4.290629 32.756933 19.615272
2009-09-29 15:34:50 51°20.823 2°52.574 17.4335 4.28928 32.747361 19.615272
2009-09-29 15:35:50 51°20.63 2°52.534 17.4271 4.288346 32.74004 19.615272
2009-09-29 15:36:50 51°20.436 2°52.497 17.4262 4.287516 32.734249 19.650096
2009-09-29 15:37:50 51°20.242 2°52.462 17.4265 4.286894 32.727002 19.650096
2009-09-29 15:38:50 51°20.047 2°52.424 17.4294 4.286271 32.721047 19.68492
2009-09-29 15:39:50 51°19.852 2°52.387 17.4336 4.285648 32.715736 19.68492
2009-09-29 15:40:50 51°19.658 2°52.35 17.429 4.285129 32.708732 19.68492
2009-09-29 15:41:50 51°19.463 2°52.314 17.4344 4.284299 32.702941 19.719744
2009-09-29 15:42:50 51°19.269 2°52.276 17.4415 4.284195 32.697545 19.719744
2009-09-29 15:43:50 51°19.074 2°52.237 17.4441 4.284922 32.701162 19.789392
2009-09-29 15:44:50 51°18.881 2°52.196 17.4427 4.285856 32.705903 19.824216
2009-09-29 15:45:50 51°18.688 2°52.162 17.44 4.284922 32.698584 19.928688
2009-09-29 15:46:50 51°18.495 2°52.141 17.431 4.282846 32.685398 19.963512
2009-09-29 15:47:50 51°18.3 2°52.135 17.4245 4.28046 32.671487 19.963512
2009-09-29 15:48:50 51°18.104 2°52.13 17.4215 4.27828 32.658055 19.963512
2009-09-29 15:49:50 51°17.908 2°52.12 17.4118 4.276516 32.64816 19.963512
2009-09-29 15:50:50 51°17.711 2°52.108 17.407 4.275167 32.640517 19.998336
2009-09-29 15:51:50 51°17.516 2°52.109 17.4155 4.274026 32.633999 19.998336
2009-09-29 15:52:50 51°17.323 2°52.161 17.4157 4.273715 32.628769 19.998336
2009-09-29 15:53:50 51°17.138 2°52.253 17.4225 4.273507 32.624426 20.03316
2009-09-29 15:55:01 51°16.926 2°52.383 17.4261 4.273714 32.618478 20.03316
2009-09-29 15:56:01 51°16.744 2°52.487 17.42 4.272573 32.611317 20.067984
2009-09-29 15:57:01 51°16.563 2°52.594 17.4158 4.271431 32.60287 20.067984
2009-09-29 15:58:01 51°16.382 2°52.697 17.4023 4.269045 32.589589 20.137632
2009-09-29 15:59:01 51°16.201 2°52.795 17.3904 4.265309 32.569296 20.102808
2009-09-29 16:00:01 51°16.018 2°52.889 17.3834 4.260847 32.540228 20.067984
2009-09-29 16:01:01 51°15.837 2°52.986 17.3877 4.255244 32.492434 20.03316
2009-09-29 16:02:01 51°15.663 2°53.103 17.3857 4.249952 32.445385 20.067984
2009-09-29 16:03:01 51°15.512 2°53.154 17.391 4.24549 32.40351 20.067984
2009-09-29 16:04:01 51°15.373 2°53.179 17.6842 0.109822 0.642024 31.699218
2009-09-29 16:05:01 51°15.237 2°53.23 17.7825 0.086872 0.502988 31.420626
2009-09-29 16:06:01 51°15.13 2°53.285 17.8992 0.077095 0.444318 31.350978
2009-09-29 16:07:01 51°15.041 2°53.341 18.0057 0.071229 0.409315 31.316154
2009-09-29 16:08:01 51°14.924 2°53.458 18.1158 0.066803 0.38301 31.28133
2009-09-29 16:09:01 51°14.805 2°53.63 18.2249 0.063202 0.36168 31.246506
2009-09-29 16:10:01 51°14.702 2°53.832 18.3622 0.060732 0.347069 31.211682
2009-09-29 16:11:01 51°14.611 2°54.049 18.4919 0.657672 3.630149 31.211682
2009-09-29 16:12:01 51°14.536 2°54.276 18.6311 0.111363 0.556527 31.176857
2009-09-29 16:13:01 51°14.488 2°54.521 18.6669 0.12042 0.604957 31.142033
2009-09-29 16:14:01 51°14.432 2°54.761 18.7564 0.110643 0.556659 31.142033
2009-09-29 16:15:01 51°14.365 2°54.997 18.8874 0.10385 0.521617 31.072385
2009-09-29 16:16:01 51°14.282 2°55.212 18.9735 0.098602 0.4947 31.037561
2009-09-29 16:17:01 51°14.193 2°55.347 19.0387 0.095 0.476383 31.037561
2009-09-29 16:18:01 51°14.091 2°55.434 19.1361 0.092118 0.461801 31.002737
2009-09-29 16:19:01 51°13.988 2°55.509 19.2182 0.089751 0.449906 30.967913
2009-09-29 16:20:01 51°13.896 2°55.58 19.2918 0.087796 0.439916 30.933089
2009-09-29 16:21:05 51°13.812 2°55.647 19.3934 0.085738 0.429513 30.933089
2009-09-29 16:22:05 51°13.751 2°55.727 19.4514 0.083988 0.420638 30.898265
2009-09-29 16:23:05 51°13.706 2°55.813 19.5412 0.082445 0.412824 30.863441
2009-09-29 16:24:05 51°13.675 2°55.901 19.6277 0.081312 0.407084 30.863441
2009-09-29 16:25:05 51°13.663 2°55.954 19.7249 0.080489 0.402928 30.828617